sensor_id;sensor_type;location;lat;lon;timestamp;pressure;altitude;pressure_sealevel;temperature;humidity
65614;BME280;52283;49.292;10.572;2023-08-08T00:00:07;96597.38;;;12.78;100.00
65614;BME280;52283;49.292;10.572;2023-08-08T00:02:35;96590.50;;;12.79;100.00
65614;BME280;52283;49.292;10.572;2023-08-08T00:05:02;96603.50;;;12.76;100.00
65614;BME280;52283;49.292;10.572;2023-08-08T00:07:28;96592.78;;;12.80;100.00
65614;BME280;52283;49.292;10.572;2023-08-08T00:09:56;96588.19;;;12.83;100.00
65614;BME280;52283;49.292;10.572;2023-08-08T00:12:23;96597.38;;;12.78;100.00
65614;BME280;52283;49.292;10.572;2023-08-08T00:14:50;96599.41;;;12.77;100.00
65614;BME280;52283;49.292;10.572;2023-08-08T00:17:16;96587.97;;;12.64;100.00
65614;BME280;52283;49.292;10.572;2023-08-08T00:19:42;96599.44;;;12.72;100.00
65614;BME280;52283;49.292;10.572;2023-08-08T00:22:09;96594.34;;;12.70;100.00
65614;BME280;52283;49.292;10.572;2023-08-08T00:24:35;96599.97;;;12.65;100.00
65614;BME280;52283;49.292;10.572;2023-08-08T00:27:03;96596.41;;;12.64;100.00
65614;BME280;52283;49.292;10.572;2023-08-08T00:29:30;96598.94;;;12.68;100.00
65614;BME280;52283;49.292;10.572;2023-08-08T00:31:56;96597.66;;;12.69;100.00
65614;BME280;52283;49.292;10.572;2023-08-08T00:34:23;96594.34;;;12.70;100.00
65614;BME280;52283;49.292;10.572;2023-08-08T00:36:49;96591.81;;;12.72;100.00
65614;BME280;52283;49.292;10.572;2023-08-08T00:39:16;96581.31;;;12.78;100.00
65614;BME280;52283;49.292;10.572;2023-08-08T00:41:42;96572.94;;;12.73;100.00
65614;BME280;52283;49.292;10.572;2023-08-08T00:44:11;96559.16;;;12.69;100.00
65614;BME280;52283;49.292;10.572;2023-08-08T00:46:37;96571.13;;;12.70;100.00
65614;BME280;52283;49.292;10.572;2023-08-08T00:49:03;96571.13;;;12.75;100.00
65614;BME280;52283;49.292;10.572;2023-08-08T00:51:30;96562.47;;;12.68;100.00
65614;BME280;52283;49.292;10.572;2023-08-08T00:53:57;96561.72;;;12.73;100.00
65614;BME280;52283;49.292;10.572;2023-08-08T00:56:24;96558.16;;;12.67;100.00
65614;BME280;52283;49.292;10.572;2023-08-08T00:58:51;96558.66;;;12.71;100.00
65614;BME280;52283;49.292;10.572;2023-08-08T01:01:19;96558.91;;;12.73;100.00
65614;BME280;52283;49.292;10.572;2023-08-08T01:03:45;96557.88;;;12.76;100.00
65614;BME280;52283;49.292;10.572;2023-08-08T01:06:17;96559.91;;;12.70;100.00
65614;BME280;52283;49.292;10.572;2023-08-08T01:08:49;96560.19;;;12.66;100.00
65614;BME280;52283;49.292;10.572;2023-08-08T01:11:17;96561.47;;;12.65;100.00
65614;BME280;52283;49.292;10.572;2023-08-08T01:13:44;96565.81;;;12.66;100.00
65614;BME280;52283;49.292;10.572;2023-08-08T01:16:12;96566.84;;;12.58;100.00
65614;BME280;52283;49.292;10.572;2023-08-08T01:18:41;96570.94;;;12.57;100.00
65614;BME280;52283;49.292;10.572;2023-08-08T01:21:08;96569.69;;;12.52;100.00
65614;BME280;52283;49.292;10.572;2023-08-08T01:23:41;96566.13;;;12.40;100.00
65614;BME280;52283;49.292;10.572;2023-08-08T01:26:10;96566.13;;;12.40;100.00
65614;BME280;52283;49.292;10.572;2023-08-08T01:28:37;96561.28;;;12.46;100.00
65614;BME280;52283;49.292;10.572;2023-08-08T01:31:04;96563.31;;;12.46;100.00
65614;BME280;52283;49.292;10.572;2023-08-08T01:33:30;96562.06;;;12.41;100.00
65614;BME280;52283;49.292;10.572;2023-08-08T01:36:00;96565.66;;;12.31;100.00
65614;BME280;52283;49.292;10.572;2023-08-08T01:38:32;96561.56;;;12.37;100.00
65614;BME280;52283;49.292;10.572;2023-08-08T01:41:00;96564.84;;;12.41;100.00
65614;BME280;52283;49.292;10.572;2023-08-08T01:43:29;96560.00;;;12.47;100.00
65614;BME280;52283;49.292;10.572;2023-08-08T01:45:56;96561.53;;;12.48;100.00
65614;BME280;52283;49.292;10.572;2023-08-08T01:48:23;96556.19;;;12.45;100.00
65614;BME280;52283;49.292;10.572;2023-08-08T01:50:50;96554.94;;;12.40;100.00
65614;BME280;52283;49.292;10.572;2023-08-08T01:53:16;96561.03;;;12.44;100.00
65614;BME280;52283;49.292;10.572;2023-08-08T01:55:43;96570.44;;;12.47;100.00
65614;BME280;52283;49.292;10.572;2023-08-08T01:58:09;96575.03;;;12.50;100.00
65614;BME280;52283;49.292;10.572;2023-08-08T02:00:37;96573.78;;;12.51;100.00
65614;BME280;52283;49.292;10.572;2023-08-08T02:03:06;96578.59;;;12.45;100.00
65614;BME280;52283;49.292;10.572;2023-08-08T02:05:32;96572.25;;;12.44;100.00
65614;BME280;52283;49.292;10.572;2023-08-08T02:07:59;96578.63;;;12.28;100.00
65614;BME280;52283;49.292;10.572;2023-08-08T02:10:25;96568.22;;;12.12;100.00
65614;BME280;52283;49.292;10.572;2023-08-08T02:12:52;96553.97;;;12.15;100.00
65614;BME280;52283;49.292;10.572;2023-08-08T02:15:18;96560.59;;;12.12;100.00
65614;BME280;52283;49.292;10.572;2023-08-08T02:17:46;96559.06;;;12.11;100.00
65614;BME280;52283;49.292;10.572;2023-08-08T02:20:13;96558.56;;;12.02;100.00
65614;BME280;52283;49.292;10.572;2023-08-08T02:22:39;96553.47;;;12.00;100.00
65614;BME280;52283;49.292;10.572;2023-08-08T02:25:06;96544.81;;;11.98;100.00
65614;BME280;52283;49.292;10.572;2023-08-08T02:27:33;96537.19;;;11.87;100.00
65614;BME280;52283;49.292;10.572;2023-08-08T02:30:00;96541.75;;;11.85;100.00
65614;BME280;52283;49.292;10.572;2023-08-08T02:32:26;96543.78;;;11.84;100.00
65614;BME280;52283;49.292;10.572;2023-08-08T02:34:54;96539.50;;;11.89;100.00
65614;BME280;52283;49.292;10.572;2023-08-08T02:37:21;96546.06;;;11.75;100.00
65614;BME280;52283;49.292;10.572;2023-08-08T02:39:47;96545.56;;;11.76;100.00
65614;BME280;52283;49.292;10.572;2023-08-08T02:42:13;96558.31;;;11.83;100.00
65614;BME280;52283;49.292;10.572;2023-08-08T02:44:40;96556.50;;;11.74;100.00
65614;BME280;52283;49.292;10.572;2023-08-08T02:47:06;96549.41;;;11.84;100.00
65614;BME280;52283;49.292;10.572;2023-08-08T02:49:33;96548.13;;;11.80;100.00
65614;BME280;52283;49.292;10.572;2023-08-08T02:52:01;96560.34;;;11.71;100.00
65614;BME280;52283;49.292;10.572;2023-08-08T02:54:27;96550.66;;;11.67;100.00
65614;BME280;52283;49.292;10.572;2023-08-08T02:56:54;96556.50;;;11.63;100.00
65614;BME280;52283;49.292;10.572;2023-08-08T02:59:21;96558.31;;;11.66;100.00
65614;BME280;52283;49.292;10.572;2023-08-08T03:01:47;96548.09;;;11.63;100.00
65614;BME280;52283;49.292;10.572;2023-08-08T03:04:14;96544.31;;;11.66;100.00
65614;BME280;52283;49.292;10.572;2023-08-08T03:06:41;96548.63;;;11.56;100.00
65614;BME280;52283;49.292;10.572;2023-08-08T03:09:08;96551.41;;;11.56;100.00
65614;BME280;52283;49.292;10.572;2023-08-08T03:11:35;96548.84;;;11.41;100.00
65614;BME280;52283;49.292;10.572;2023-08-08T03:14:02;96554.19;;;11.45;100.00
65614;BME280;52283;49.292;10.572;2023-08-08T03:16:29;96546.03;;;11.36;100.00
65614;BME280;52283;49.292;10.572;2023-08-08T03:18:55;96547.81;;;11.44;100.00
65614;BME280;52283;49.292;10.572;2023-08-08T03:21:22;96540.97;;;11.51;100.00
65614;BME280;52283;49.292;10.572;2023-08-08T03:23:48;96550.66;;;11.50;100.00
65614;BME280;52283;49.292;10.572;2023-08-08T03:26:16;96551.91;;;11.49;100.00
65614;BME280;52283;49.292;10.572;2023-08-08T03:28:42;96546.59;;;11.51;100.00
65614;BME280;52283;49.292;10.572;2023-08-08T03:31:09;96548.63;;;11.56;100.00
65614;BME280;52283;49.292;10.572;2023-08-08T03:33:35;96553.19;;;11.53;100.00
65614;BME280;52283;49.292;10.572;2023-08-08T03:36:02;96558.03;;;11.58;100.00
65614;BME280;52283;49.292;10.572;2023-08-08T03:38:28;96557.03;;;11.67;100.00
65614;BME280;52283;49.292;10.572;2023-08-08T03:40:55;96562.63;;;11.67;100.00
65614;BME280;52283;49.292;10.572;2023-08-08T03:43:23;96558.56;;;11.68;100.00
65614;BME280;52283;49.292;10.572;2023-08-08T03:45:49;96560.81;;;11.64;100.00
65614;BME280;52283;49.292;10.572;2023-08-08T03:48:15;96560.81;;;11.64;100.00
65614;BME280;52283;49.292;10.572;2023-08-08T03:50:42;96559.81;;;11.61;100.00
65614;BME280;52283;49.292;10.572;2023-08-08T03:53:08;96561.59;;;11.59;100.00
65614;BME280;52283;49.292;10.572;2023-08-08T03:55:35;96558.53;;;11.63;100.00
65614;BME280;52283;49.292;10.572;2023-08-08T03:58:01;96563.91;;;11.66;100.00
65614;BME280;52283;49.292;10.572;2023-08-08T04:00:29;96561.88;;;11.67;100.00
65614;BME280;52283;49.292;10.572;2023-08-08T04:02:56;96561.59;;;11.65;100.00
65614;BME280;52283;49.292;10.572;2023-08-08T04:05:22;96566.16;;;11.62;100.00
65614;BME280;52283;49.292;10.572;2023-08-08T04:07:49;96560.31;;;11.60;100.00
65614;BME280;52283;49.292;10.572;2023-08-08T04:10:15;96568.19;;;11.50;100.00
65614;BME280;52283;49.292;10.572;2023-08-08T04:12:42;96569.97;;;11.48;100.00
65614;BME280;52283;49.292;10.572;2023-08-08T04:15:09;96573.78;;;11.45;100.00
65614;BME280;52283;49.292;10.572;2023-08-08T04:17:37;96574.81;;;11.53;100.00
65614;BME280;52283;49.292;10.572;2023-08-08T04:20:05;96566.16;;;11.56;100.00
65614;BME280;52283;49.292;10.572;2023-08-08T04:22:31;96558.28;;;11.49;100.00
65614;BME280;52283;49.292;10.572;2023-08-08T04:24:58;96565.66;;;11.47;100.00
65614;BME280;52283;49.292;10.572;2023-08-08T04:27:24;96563.59;;;11.36;100.00
65614;BME280;52283;49.292;10.572;2023-08-08T04:29:51;96566.41;;;11.42;100.00
65614;BME280;52283;49.292;10.572;2023-08-08T04:32:17;96558.25;;;11.38;100.00
65614;BME280;52283;49.292;10.572;2023-08-08T04:34:45;96557.50;;;11.38;100.00
65614;BME280;52283;49.292;10.572;2023-08-08T04:37:12;96556.97;;;11.34;100.00
65614;BME280;52283;49.292;10.572;2023-08-08T04:39:38;96548.59;;;11.28;100.00
65614;BME280;52283;49.292;10.572;2023-08-08T04:42:05;96552.13;;;11.23;100.00
65614;BME280;52283;49.292;10.572;2023-08-08T04:44:31;96553.38;;;11.22;100.00
65614;BME280;52283;49.292;10.572;2023-08-08T04:46:58;96555.94;;;11.20;100.00
65614;BME280;52283;49.292;10.572;2023-08-08T04:49:24;96555.44;;;11.27;100.00
65614;BME280;52283;49.292;10.572;2023-08-08T04:51:52;96551.63;;;11.30;100.00
65614;BME280;52283;49.292;10.572;2023-08-08T04:54:19;96551.63;;;11.36;100.00
65614;BME280;52283;49.292;10.572;2023-08-08T04:56:45;96558.50;;;11.35;100.00
65614;BME280;52283;49.292;10.572;2023-08-08T04:59:12;96561.56;;;11.42;100.00
65614;BME280;52283;49.292;10.572;2023-08-08T05:01:38;96555.44;;;11.38;100.00
65614;BME280;52283;49.292;10.572;2023-08-08T05:04:05;96557.00;;;11.50;100.00
65614;BME280;52283;49.292;10.572;2023-08-08T05:06:31;96561.06;;;11.55;100.00
65614;BME280;52283;49.292;10.572;2023-08-08T05:08:59;96563.63;;;11.70;100.00
65614;BME280;52283;49.292;10.572;2023-08-08T05:11:25;96553.19;;;11.65;100.00
65614;BME280;52283;49.292;10.572;2023-08-08T05:13:52;96562.63;;;11.67;100.00
65614;BME280;52283;49.292;10.572;2023-08-08T05:16:18;96559.84;;;11.78;100.00
65614;BME280;52283;49.292;10.572;2023-08-08T05:18:45;96564.69;;;11.89;100.00
65614;BME280;52283;49.292;10.572;2023-08-08T05:21:11;96561.13;;;11.94;100.00
65614;BME280;52283;49.292;10.572;2023-08-08T05:23:38;96567.22;;;12.04;100.00
65614;BME280;52283;49.292;10.572;2023-08-08T05:26:05;96565.41;;;12.17;100.00
65614;BME280;52283;49.292;10.572;2023-08-08T05:28:32;96565.38;;;12.40;100.00
65614;BME280;52283;49.292;10.572;2023-08-08T05:30:58;96566.63;;;12.50;100.00
65614;BME280;52283;49.292;10.572;2023-08-08T05:33:26;96566.88;;;12.52;100.00
65614;BME280;52283;49.292;10.572;2023-08-08T05:35:52;96562.03;;;12.47;100.00
65614;BME280;52283;49.292;10.572;2023-08-08T05:38:19;96560.75;;;12.54;100.00
65614;BME280;52283;49.292;10.572;2023-08-08T05:40:45;96559.78;;;12.40;100.00
65614;BME280;52283;49.292;10.572;2023-08-08T05:43:13;96559.75;;;12.45;100.00
65614;BME280;52283;49.292;10.572;2023-08-08T05:45:42;96559.25;;;12.52;100.00
65614;BME280;52283;49.292;10.572;2023-08-08T05:48:08;96555.38;;;12.61;100.00
65614;BME280;52283;49.292;10.572;2023-08-08T05:50:37;96555.31;;;12.78;100.00
65614;BME280;52283;49.292;10.572;2023-08-08T05:53:03;96556.22;;;13.03;100.00
65614;BME280;52283;49.292;10.572;2023-08-08T05:55:30;96556.41;;;13.22;100.00
65614;BME280;52283;49.292;10.572;2023-08-08T05:57:56;96559.22;;;13.16;100.00
65614;BME280;52283;49.292;10.572;2023-08-08T06:00:24;96556.19;;;13.14;100.00
65614;BME280;52283;49.292;10.572;2023-08-08T06:02:51;96557.69;;;13.15;100.00
65614;BME280;52283;49.292;10.572;2023-08-08T06:05:18;96557.47;;;13.07;100.00
65614;BME280;52283;49.292;10.572;2023-08-08T06:07:44;96556.19;;;13.08;100.00
65614;BME280;52283;49.292;10.572;2023-08-08T06:10:10;96554.59;;;13.24;100.00
65614;BME280;52283;49.292;10.572;2023-08-08T06:12:37;96560.16;;;13.35;100.00
65614;BME280;52283;49.292;10.572;2023-08-08T06:15:08;96555.78;;;13.40;100.00
65614;BME280;52283;49.292;10.572;2023-08-08T06:17:36;96555.84;;;13.34;100.00
65614;BME280;52283;49.292;10.572;2023-08-08T06:20:03;96555.50;;;13.43;100.00
65614;BME280;52283;49.292;10.572;2023-08-08T06:22:30;96548.84;;;13.47;100.00
65614;BME280;52283;49.292;10.572;2023-08-08T06:24:56;96543.00;;;13.80;100.00
65614;BME280;52283;49.292;10.572;2023-08-08T06:27:23;96543.19;;;13.88;100.00
65614;BME280;52283;49.292;10.572;2023-08-08T06:29:50;96542.66;;;13.89;100.00
65614;BME280;52283;49.292;10.572;2023-08-08T06:32:16;96544.03;;;14.07;100.00
65614;BME280;52283;49.292;10.572;2023-08-08T06:34:44;96545.03;;;14.10;100.00
65614;BME280;52283;49.292;10.572;2023-08-08T06:37:11;96541.75;;;14.06;100.00
65614;BME280;52283;49.292;10.572;2023-08-08T06:39:37;96546.38;;;14.03;100.00
65614;BME280;52283;49.292;10.572;2023-08-08T06:42:05;96548.81;;;14.42;100.00
65614;BME280;52283;49.292;10.572;2023-08-08T06:44:32;96543.22;;;14.37;100.00
65614;BME280;52283;49.292;10.572;2023-08-08T06:46:59;96546.72;;;14.48;100.00
65614;BME280;52283;49.292;10.572;2023-08-08T06:49:26;96532.19;;;14.69;100.00
65614;BME280;52283;49.292;10.572;2023-08-08T06:51:53;96536.91;;;14.79;100.00
65614;BME280;52283;49.292;10.572;2023-08-08T06:54:20;96526.69;;;15.01;100.00
65614;BME280;52283;49.292;10.572;2023-08-08T06:56:46;96524.44;;;15.31;100.00
65614;BME280;52283;49.292;10.572;2023-08-08T06:59:13;96526.19;;;14.97;100.00
65614;BME280;52283;49.292;10.572;2023-08-08T07:01:39;96536.03;;;15.09;100.00
65614;BME280;52283;49.292;10.572;2023-08-08T07:04:06;96535.78;;;15.63;100.00
65614;BME280;52283;49.292;10.572;2023-08-08T07:06:32;96511.00;;;15.75;100.00
65614;BME280;52283;49.292;10.572;2023-08-08T07:09:00;96525.44;;;15.34;100.00
65614;BME280;52283;49.292;10.572;2023-08-08T07:11:27;96514.03;;;15.45;100.00
65614;BME280;52283;49.292;10.572;2023-08-08T07:13:54;96529.63;;;15.46;100.00
65614;BME280;52283;49.292;10.572;2023-08-08T07:16:20;96519.09;;;15.97;100.00
65614;BME280;52283;49.292;10.572;2023-08-08T07:18:46;96516.19;;;15.71;100.00
65614;BME280;52283;49.292;10.572;2023-08-08T07:21:13;96517.72;;;15.53;100.00
65614;BME280;52283;49.292;10.572;2023-08-08T07:23:40;96517.56;;;15.83;100.00
65614;BME280;52283;49.292;10.572;2023-08-08T07:26:08;96505.47;;;15.69;100.00
65614;BME280;52283;49.292;10.572;2023-08-08T07:28:34;96507.81;;;15.97;100.00
65614;BME280;52283;49.292;10.572;2023-08-08T07:31:01;96499.94;;;16.35;100.00
65614;BME280;52283;49.292;10.572;2023-08-08T07:33:27;96512.84;;;16.17;100.00
65614;BME280;52283;49.292;10.572;2023-08-08T07:35:54;96517.31;;;16.39;100.00
65614;BME280;52283;49.292;10.572;2023-08-08T07:38:20;96505.72;;;16.30;100.00
65614;BME280;52283;49.292;10.572;2023-08-08T07:40:46;96504.50;;;16.12;100.00
65614;BME280;52283;49.292;10.572;2023-08-08T07:43:15;96504.41;;;16.44;100.00
65614;BME280;52283;49.292;10.572;2023-08-08T07:45:41;96517.09;;;16.37;100.00
65614;BME280;52283;49.292;10.572;2023-08-08T07:48:07;96504.44;;;16.70;100.00
65614;BME280;52283;49.292;10.572;2023-08-08T07:50:34;96487.66;;;16.99;100.00
65614;BME280;52283;49.292;10.572;2023-08-08T07:53:00;96501.72;;;16.78;100.00
65614;BME280;52283;49.292;10.572;2023-08-08T07:55:27;96499.09;;;16.40;100.00
65614;BME280;52283;49.292;10.572;2023-08-08T07:57:53;96500.41;;;16.92;100.00
65614;BME280;52283;49.292;10.572;2023-08-08T08:00:21;96503.91;;;16.72;100.00
65614;BME280;52283;49.292;10.572;2023-08-08T08:02:48;96495.00;;;16.68;100.00
65614;BME280;52283;49.292;10.572;2023-08-08T08:05:14;96505.59;;;16.49;100.00
65614;BME280;52283;49.292;10.572;2023-08-08T08:07:41;96489.13;;;16.66;100.00
65614;BME280;52283;49.292;10.572;2023-08-08T08:10:09;96484.75;;;16.65;100.00
65614;BME280;52283;49.292;10.572;2023-08-08T08:12:39;96492.34;;;16.96;100.00
65614;BME280;52283;49.292;10.572;2023-08-08T08:15:06;96488.78;;;17.30;100.00
65614;BME280;52283;49.292;10.572;2023-08-08T08:17:34;96487.16;;;17.34;100.00
65614;BME280;52283;49.292;10.572;2023-08-08T08:20:01;96498.91;;;17.80;100.00
65614;BME280;52283;49.292;10.572;2023-08-08T08:22:30;96479.63;;;17.71;97.09
65614;BME280;52283;49.292;10.572;2023-08-08T08:24:57;96491.41;;;17.49;95.30
65614;BME280;52283;49.292;10.572;2023-08-08T08:27:23;96490.16;;;17.02;99.90
65614;BME280;52283;49.292;10.572;2023-08-08T08:29:50;96496.53;;;16.69;100.00
65614;BME280;52283;49.292;10.572;2023-08-08T08:32:16;96481.50;;;17.34;99.23
65614;BME280;52283;49.292;10.572;2023-08-08T08:34:44;96475.41;;;16.96;99.01
65614;BME280;52283;49.292;10.572;2023-08-08T08:37:11;96484.13;;;16.59;100.00
65614;BME280;52283;49.292;10.572;2023-08-08T08:39:37;96488.13;;;16.63;100.00
65614;BME280;52283;49.292;10.572;2023-08-08T08:42:04;96487.72;;;17.20;100.00
65614;BME280;52283;49.292;10.572;2023-08-08T08:44:32;96482.13;;;17.61;96.12
65614;BME280;52283;49.292;10.572;2023-08-08T08:46:59;96479.53;;;18.05;93.04
65614;BME280;52283;49.292;10.572;2023-08-08T08:49:29;96487.78;;;17.27;97.07
65614;BME280;52283;49.292;10.572;2023-08-08T08:51:59;96467.28;;;17.82;91.33
65614;BME280;52283;49.292;10.572;2023-08-08T08:54:27;96476.25;;;17.73;90.47
65614;BME280;52283;49.292;10.572;2023-08-08T08:56:55;96478.31;;;17.72;87.60
65614;BME280;52283;49.292;10.572;2023-08-08T08:59:22;96478.75;;;17.42;91.28
65614;BME280;52283;49.292;10.572;2023-08-08T09:01:49;96487.81;;;16.80;92.51
65614;BME280;52283;49.292;10.572;2023-08-08T09:04:18;96483.25;;;16.77;95.29
65614;BME280;52283;49.292;10.572;2023-08-08T09:06:46;96495.91;;;17.10;94.17
65614;BME280;52283;49.292;10.572;2023-08-08T09:09:14;96478.13;;;17.70;91.58
65614;BME280;52283;49.292;10.572;2023-08-08T09:11:42;96485.50;;;17.60;87.32
65614;BME280;52283;49.292;10.572;2023-08-08T09:14:15;96468.94;;;17.22;85.07
65614;BME280;52283;49.292;10.572;2023-08-08T09:16:42;96478.19;;;17.44;85.59
65614;BME280;52283;49.292;10.572;2023-08-08T09:19:09;96474.31;;;17.33;86.24
65614;BME280;52283;49.292;10.572;2023-08-08T09:21:35;96477.53;;;17.51;84.42
65614;BME280;52283;49.292;10.572;2023-08-08T09:24:02;96480.19;;;17.35;85.95
65614;BME280;52283;49.292;10.572;2023-08-08T09:26:30;96464.84;;;17.65;82.52
65614;BME280;52283;49.292;10.572;2023-08-08T09:28:57;96465.72;;;17.73;82.79
65614;BME280;52283;49.292;10.572;2023-08-08T09:31:24;96454.03;;;17.97;80.94
65614;BME280;52283;49.292;10.572;2023-08-08T09:33:51;96463.31;;;17.64;83.82
65614;BME280;52283;49.292;10.572;2023-08-08T09:36:17;96460.03;;;17.94;81.20
65614;BME280;52283;49.292;10.572;2023-08-08T09:38:45;96454.69;;;18.11;81.19
65614;BME280;52283;49.292;10.572;2023-08-08T09:41:11;96456.94;;;17.84;82.37
65614;BME280;52283;49.292;10.572;2023-08-08T09:43:43;96446.25;;;18.47;80.04
65614;BME280;52283;49.292;10.572;2023-08-08T09:46:09;96443.84;;;18.23;79.01
65614;BME280;52283;49.292;10.572;2023-08-08T09:48:39;96436.09;;;17.53;79.97
65614;BME280;52283;49.292;10.572;2023-08-08T09:51:06;96435.00;;;17.56;80.36
65614;BME280;52283;49.292;10.572;2023-08-08T09:53:34;96442.56;;;17.61;78.45
65614;BME280;52283;49.292;10.572;2023-08-08T09:56:02;96436.53;;;17.78;79.05
65614;BME280;52283;49.292;10.572;2023-08-08T09:58:29;96443.09;;;17.73;79.65
65614;BME280;52283;49.292;10.572;2023-08-08T10:00:57;96445.38;;;17.75;79.71
65614;BME280;52283;49.292;10.572;2023-08-08T10:03:25;96448.88;;;17.67;77.99
65614;BME280;52283;49.292;10.572;2023-08-08T10:05:51;96446.53;;;17.79;76.67
65614;BME280;52283;49.292;10.572;2023-08-08T10:08:18;96443.50;;;17.77;76.04
65614;BME280;52283;49.292;10.572;2023-08-08T10:10:47;96437.66;;;17.75;75.28
65614;BME280;52283;49.292;10.572;2023-08-08T10:13:19;96436.75;;;17.80;76.34
65614;BME280;52283;49.292;10.572;2023-08-08T10:15:45;96442.03;;;17.84;76.13
65614;BME280;52283;49.292;10.572;2023-08-08T10:18:13;96436.38;;;17.63;75.19
65614;BME280;52283;49.292;10.572;2023-08-08T10:20:42;96433.53;;;17.63;75.71
65614;BME280;52283;49.292;10.572;2023-08-08T10:23:09;96426.13;;;17.52;76.02
65614;BME280;52283;49.292;10.572;2023-08-08T10:25:35;96431.69;;;17.45;75.83
65614;BME280;52283;49.292;10.572;2023-08-08T10:28:03;96428.75;;;17.92;74.90
65614;BME280;52283;49.292;10.572;2023-08-08T10:30:30;96434.78;;;17.96;74.03
65614;BME280;52283;49.292;10.572;2023-08-08T10:32:57;96427.22;;;17.91;74.29
65614;BME280;52283;49.292;10.572;2023-08-08T10:35:34;96424.81;;;17.95;74.23
65614;BME280;52283;49.292;10.572;2023-08-08T10:38:08;96425.16;;;17.91;72.61
65614;BME280;52283;49.292;10.572;2023-08-08T10:40:34;96418.00;;;18.19;71.63
65614;BME280;52283;49.292;10.572;2023-08-08T10:43:09;96426.84;;;18.51;72.17
65614;BME280;52283;49.292;10.572;2023-08-08T10:45:37;96421.97;;;18.23;71.40
65614;BME280;52283;49.292;10.572;2023-08-08T10:48:08;96423.00;;;17.84;68.24
65614;BME280;52283;49.292;10.572;2023-08-08T10:50:40;96413.41;;;17.87;68.28
65614;BME280;52283;49.292;10.572;2023-08-08T10:53:08;96425.34;;;17.93;69.42
65614;BME280;52283;49.292;10.572;2023-08-08T10:55:36;96416.19;;;17.80;67.74
65614;BME280;52283;49.292;10.572;2023-08-08T10:58:05;96408.44;;;17.73;64.20
65614;BME280;52283;49.292;10.572;2023-08-08T11:00:33;96412.88;;;17.89;63.94
65614;BME280;52283;49.292;10.572;2023-08-08T11:03:01;96394.69;;;18.05;62.46
65614;BME280;52283;49.292;10.572;2023-08-08T11:05:30;96401.63;;;17.96;62.74
65614;BME280;52283;49.292;10.572;2023-08-08T11:07:59;96402.75;;;18.29;63.59
65614;BME280;52283;49.292;10.572;2023-08-08T11:10:26;96407.50;;;18.63;63.56
65614;BME280;52283;49.292;10.572;2023-08-08T11:12:58;96394.81;;;19.08;61.61
65614;BME280;52283;49.292;10.572;2023-08-08T11:15:25;96395.06;;;18.74;58.80
65614;BME280;52283;49.292;10.572;2023-08-08T11:17:52;96371.53;;;18.79;59.06
65614;BME280;52283;49.292;10.572;2023-08-08T11:20:20;96386.31;;;19.08;57.92
65614;BME280;52283;49.292;10.572;2023-08-08T11:22:51;96380.41;;;18.91;58.85
65614;BME280;52283;49.292;10.572;2023-08-08T11:25:19;96397.19;;;18.81;60.94
65614;BME280;52283;49.292;10.572;2023-08-08T11:27:49;96400.41;;;18.85;62.21
65614;BME280;52283;49.292;10.572;2023-08-08T11:30:17;96397.59;;;19.59;60.99
65614;BME280;52283;49.292;10.572;2023-08-08T11:32:43;96401.13;;;19.37;61.47
65614;BME280;52283;49.292;10.572;2023-08-08T11:35:11;96390.56;;;19.68;61.17
65614;BME280;52283;49.292;10.572;2023-08-08T11:37:37;96376.97;;;19.59;60.18
65614;BME280;52283;49.292;10.572;2023-08-08T11:40:05;96379.94;;;19.23;61.91
65614;BME280;52283;49.292;10.572;2023-08-08T11:42:33;96387.63;;;19.07;63.85
65614;BME280;52283;49.292;10.572;2023-08-08T11:45:00;96372.38;;;19.25;63.76
65614;BME280;52283;49.292;10.572;2023-08-08T11:47:29;96391.28;;;19.30;62.78
65614;BME280;52283;49.292;10.572;2023-08-08T11:50:00;96373.97;;;18.75;61.16
65614;BME280;52283;49.292;10.572;2023-08-08T11:52:27;96370.72;;;18.63;59.82
65614;BME280;52283;49.292;10.572;2023-08-08T11:54:54;96378.25;;;19.19;60.11
65614;BME280;52283;49.292;10.572;2023-08-08T11:57:20;96383.19;;;19.57;58.14
65614;BME280;52283;49.292;10.572;2023-08-08T11:59:49;96359.31;;;18.99;54.16
65614;BME280;52283;49.292;10.572;2023-08-08T12:02:16;96364.03;;;19.04;55.16
65614;BME280;52283;49.292;10.572;2023-08-08T12:04:44;96362.72;;;18.98;53.67
65614;BME280;52283;49.292;10.572;2023-08-08T12:07:10;96352.19;;;19.21;53.79
65614;BME280;52283;49.292;10.572;2023-08-08T12:09:37;96367.28;;;19.31;53.61
65614;BME280;52283;49.292;10.572;2023-08-08T12:12:04;96360.53;;;19.57;52.78
65614;BME280;52283;49.292;10.572;2023-08-08T12:14:36;96360.53;;;19.57;52.99
65614;BME280;52283;49.292;10.572;2023-08-08T12:17:04;96366.59;;;19.61;52.63
65614;BME280;52283;49.292;10.572;2023-08-08T12:19:31;96370.13;;;19.46;51.65
65614;BME280;52283;49.292;10.572;2023-08-08T12:21:57;96364.44;;;19.31;53.31
65614;BME280;52283;49.292;10.572;2023-08-08T12:24:24;96348.59;;;19.21;53.68
65614;BME280;52283;49.292;10.572;2023-08-08T12:26:50;96370.34;;;19.56;53.50
65614;BME280;52283;49.292;10.572;2023-08-08T12:29:16;96362.81;;;19.59;50.80
65614;BME280;52283;49.292;10.572;2023-08-08T12:31:43;96365.44;;;19.64;52.22
65614;BME280;52283;49.292;10.572;2023-08-08T12:34:11;96375.19;;;19.10;53.06
65614;BME280;52283;49.292;10.572;2023-08-08T12:36:37;96370.94;;;19.62;53.44
65614;BME280;52283;49.292;10.572;2023-08-08T12:39:05;96369.81;;;19.58;53.14
65614;BME280;52283;49.292;10.572;2023-08-08T12:41:31;96376.34;;;19.30;53.91